createdAt,value
2018-01-05T00:00:30.369Z,8.27
2018-01-05T00:02:57.994Z,7.30
2018-01-05T00:05:25.659Z,6.10
2018-01-05T00:07:53.328Z,10.43
2018-01-05T00:10:21.037Z,5.10
2018-01-05T00:12:48.607Z,15.83
2018-01-05T00:15:16.224Z,7.17
2018-01-05T00:17:43.925Z,16.70
2018-01-05T00:20:11.494Z,10.30
2018-01-05T00:22:39.068Z,9.20
2018-01-05T00:25:06.679Z,10.57
2018-01-05T00:27:34.247Z,8.53
2018-01-05T00:30:02.580Z,9.07
2018-01-05T00:32:30.204Z,6.20
2018-01-05T00:34:57.787Z,12.77
2018-01-05T00:37:25.412Z,10.07
2018-01-05T00:39:53.027Z,9.23
2018-01-05T00:42:20.595Z,9.80
2018-01-05T00:44:48.218Z,6.80
2018-01-05T00:47:15.827Z,8.80
2018-01-05T00:49:43.487Z,7.70
2018-01-05T00:52:11.105Z,7.67
2018-01-05T00:54:38.715Z,7.60
2018-01-05T00:57:06.326Z,10.70
2018-01-05T00:59:33.939Z,14.90
2018-01-05T01:02:01.655Z,11.37
2018-01-05T01:04:29.235Z,7.90
2018-01-05T01:06:56.811Z,13.43
2018-01-05T01:09:24.487Z,7.27
2018-01-05T01:11:52.852Z,10.33
2018-01-05T01:14:20.463Z,9.07
2018-01-05T01:16:48.036Z,7.27
2018-01-05T01:19:15.641Z,12.00
2018-01-05T01:21:43.215Z,12.73
2018-01-05T01:24:10.867Z,8.73
2018-01-05T01:26:38.443Z,7.63
2018-01-05T01:29:06.099Z,8.37
2018-01-05T01:31:33.765Z,13.67
2018-01-05T01:34:01.425Z,10.03
2018-01-05T01:36:29.091Z,15.20
2018-01-05T01:38:56.669Z,10.63
2018-01-05T01:41:24.295Z,11.67
2018-01-05T01:43:51.868Z,8.80
2018-01-05T01:46:19.477Z,9.90
2018-01-05T01:48:49.823Z,10.00
2018-01-05T01:51:17.421Z,11.50
2018-01-05T01:53:45.115Z,11.50
2018-01-05T01:56:12.747Z,10.20
2018-01-05T01:58:40.357Z,14.50
2018-01-05T02:01:08.021Z,17.83
2018-01-05T02:03:35.627Z,12.17
2018-01-05T02:06:03.199Z,17.27
2018-01-05T02:08:30.780Z,8.20
2018-01-05T02:10:58.416Z,10.10
2018-01-05T02:13:26.079Z,5.83
2018-01-05T02:15:53.651Z,7.90
2018-01-05T02:18:21.227Z,10.20
2018-01-05T02:20:48.859Z,16.23
2018-01-05T02:23:16.438Z,15.80
2018-01-05T02:25:44.016Z,12.10
2018-01-05T02:28:11.639Z,13.90
2018-01-05T02:30:39.213Z,10.63
2018-01-05T02:33:06.840Z,8.07
2018-01-05T02:35:34.410Z,15.53
2018-01-05T02:38:02.091Z,14.93
2018-01-05T02:40:29.670Z,15.10
2018-01-05T02:42:57.243Z,12.13
2018-01-05T02:45:24.936Z,16.60
2018-01-05T02:47:52.562Z,11.93
2018-01-05T02:50:20.202Z,9.83
2018-01-05T02:52:47.813Z,12.23
2018-01-05T02:55:15.434Z,12.83
2018-01-05T02:57:43.011Z,10.57
2018-01-05T03:00:10.632Z,8.73
2018-01-05T03:02:39.134Z,11.60
2018-01-05T03:05:06.791Z,8.03
2018-01-05T03:07:34.375Z,17.70
2018-01-05T03:10:02.020Z,17.80
2018-01-05T03:12:29.663Z,10.50
2018-01-05T03:14:57.236Z,12.00
2018-01-05T03:17:24.819Z,12.17
2018-01-05T03:19:53.283Z,8.77
2018-01-05T03:22:20.867Z,14.00
2018-01-05T03:24:48.435Z,12.93
2018-01-05T03:27:16.885Z,7.60
2018-01-05T03:29:44.456Z,7.30
2018-01-05T03:32:12.070Z,10.13
2018-01-05T03:34:39.643Z,10.23
2018-01-05T03:37:07.231Z,13.40
2018-01-05T03:39:35.565Z,8.70
2018-01-05T03:42:03.956Z,7.97
2018-01-05T03:44:31.688Z,9.43
2018-01-05T03:47:00.155Z,6.67
2018-01-05T03:49:28.631Z,3.00
2018-01-05T03:51:56.967Z,3.60
2018-01-05T03:54:25.690Z,14.33
2018-01-05T03:56:53.279Z,11.37
2018-01-05T03:59:20.853Z,7.73
2018-01-05T04:01:48.468Z,4.43
2018-01-05T04:04:16.942Z,10.33
2018-01-05T04:06:45.446Z,6.93
2018-01-05T04:09:13.490Z,7.60
2018-01-05T04:11:41.166Z,4.43
2018-01-05T04:14:08.793Z,7.80
2018-01-05T04:16:37.306Z,5.43
2018-01-05T04:19:06.140Z,5.57
2018-01-05T04:21:33.771Z,6.63
2018-01-05T04:24:01.428Z,7.13
2018-01-05T04:26:30.013Z,3.10
2018-01-05T04:28:58.536Z,3.37
2018-01-05T04:31:26.155Z,2.00
2018-01-05T04:33:53.767Z,5.43
2018-01-05T04:36:22.236Z,7.00
2018-01-05T04:38:50.742Z,5.33
2018-01-05T04:41:18.532Z,2.67
2018-01-05T04:43:46.118Z,1.83
2018-01-05T04:46:14.613Z,5.00
2018-01-05T04:48:43.076Z,4.37
2018-01-05T04:51:10.661Z,9.27
2018-01-05T04:53:38.272Z,7.20
2018-01-05T04:56:05.846Z,3.20
2018-01-05T04:58:33.622Z,7.13
2018-01-05T05:01:01.197Z,3.13
2018-01-05T05:03:28.779Z,10.63
2018-01-05T05:05:56.363Z,9.93
2018-01-05T05:08:23.926Z,7.23
2018-01-05T05:10:51.503Z,7.23
2018-01-05T05:13:19.081Z,3.30
2018-01-05T05:15:46.660Z,7.63
2018-01-05T05:18:14.226Z,4.30
2018-01-05T05:20:41.882Z,5.00
2018-01-05T05:23:09.455Z,6.20
2018-01-05T05:25:37.095Z,7.87
2018-01-05T05:28:04.756Z,17.57
2018-01-05T05:30:32.327Z,7.87
2018-01-05T05:32:59.899Z,4.40
2018-01-05T05:35:27.555Z,8.53
2018-01-05T05:37:55.210Z,19.77
2018-01-05T05:40:22.782Z,8.47
2018-01-05T05:42:51.127Z,12.00
2018-01-05T05:45:18.707Z,5.50
2018-01-05T05:47:46.274Z,4.50
2018-01-05T05:50:14.846Z,8.40
2018-01-05T05:52:42.463Z,8.53
2018-01-05T05:55:10.030Z,8.43
2018-01-05T05:57:37.602Z,9.43
2018-01-05T06:00:06.119Z,11.70
2018-01-05T06:02:33.693Z,6.27
2018-01-05T06:05:01.340Z,5.60
2018-01-05T06:07:29.013Z,6.03
2018-01-05T06:09:57.503Z,13.43
2018-01-05T06:12:25.107Z,9.87
2018-01-05T06:14:53.707Z,6.70
2018-01-05T06:17:21.454Z,8.87
2018-01-05T06:19:49.058Z,7.23
2018-01-05T06:22:17.597Z,11.47
2018-01-05T06:24:45.243Z,13.13
2018-01-05T06:27:13.792Z,14.40
2018-01-05T06:29:42.126Z,13.13
2018-01-05T06:32:09.726Z,8.57
2018-01-05T06:34:37.298Z,12.60
2018-01-05T06:37:04.915Z,13.83
2018-01-05T06:39:32.483Z,13.13
2018-01-05T06:42:00.060Z,13.00
2018-01-05T06:44:28.408Z,12.10
2018-01-05T06:46:55.975Z,9.30
2018-01-05T06:49:23.540Z,9.77
2018-01-05T06:51:51.107Z,9.30
2018-01-05T06:54:18.667Z,7.40
2018-01-05T06:56:46.226Z,6.47
2018-01-05T06:59:14.482Z,16.00
2018-01-05T07:01:42.048Z,8.57
2018-01-05T07:04:10.382Z,8.57
2018-01-05T07:06:37.947Z,9.70
2018-01-05T07:09:04.842Z,15.27
2018-01-05T07:11:33.296Z,8.03
2018-01-05T07:14:01.759Z,9.90
2018-01-05T07:16:29.334Z,16.30
2018-01-05T07:18:56.944Z,17.73
2018-01-05T07:21:25.414Z,11.40
2018-01-05T07:23:52.978Z,5.57
2018-01-05T07:26:20.556Z,7.10
2018-01-05T07:28:48.124Z,10.30
2018-01-05T07:31:15.695Z,14.37
2018-01-05T07:33:43.259Z,14.33
2018-01-05T07:36:10.829Z,12.60
2018-01-05T07:38:38.406Z,9.27
2018-01-05T07:41:05.980Z,3.20
2018-01-05T07:43:34.470Z,9.83
2018-01-05T07:46:02.039Z,3.83
2018-01-05T07:48:30.414Z,9.40
2018-01-05T07:50:57.978Z,10.27
2018-01-05T07:53:25.542Z,5.93
2018-01-05T07:55:53.159Z,7.50
2018-01-05T07:58:21.652Z,13.80
2018-01-05T08:00:49.212Z,8.83
2018-01-05T08:03:17.686Z,16.87
2018-01-05T08:05:45.266Z,14.67
2018-01-05T08:08:12.832Z,9.53
2018-01-05T08:10:40.406Z,15.50
2018-01-05T08:13:07.979Z,10.00
2018-01-05T08:15:35.562Z,16.77
2018-01-05T08:18:03.140Z,12.77
2018-01-05T08:20:30.778Z,10.37
2018-01-05T08:22:58.375Z,8.30
2018-01-05T08:25:25.952Z,8.30
2018-01-05T08:27:53.595Z,9.30
2018-01-05T08:30:21.218Z,13.00
2018-01-05T08:32:48.786Z,13.83
2018-01-05T08:35:16.352Z,8.93
2018-01-05T08:37:43.920Z,14.33
2018-01-05T08:40:11.482Z,7.47
2018-01-05T08:42:39.118Z,8.33
2018-01-05T08:45:06.686Z,13.30
2018-01-05T08:47:34.263Z,15.70
2018-01-05T08:50:01.907Z,15.37
2018-01-05T08:52:29.482Z,9.20
2018-01-05T08:54:57.128Z,14.90
2018-01-05T08:57:24.694Z,11.90
2018-01-05T08:59:52.296Z,9.23
2018-01-05T09:02:19.986Z,12.60
2018-01-05T09:04:47.569Z,7.67
2018-01-05T09:07:15.133Z,5.63
2018-01-05T09:09:42.705Z,11.77
2018-01-05T09:12:10.302Z,22.87
2018-01-05T09:14:39.855Z,13.70
2018-01-05T09:17:08.247Z,14.33
2018-01-05T09:19:38.097Z,15.10
2018-01-05T09:22:05.669Z,9.80
2018-01-05T09:24:33.243Z,10.07
2018-01-05T09:27:00.818Z,20.73
2018-01-05T09:29:28.903Z,13.70
2018-01-05T09:31:57.596Z,10.97
2018-01-05T09:34:26.135Z,15.17
2018-01-05T09:36:53.968Z,11.03
2018-01-05T09:39:21.611Z,12.87
2018-01-05T09:41:49.218Z,6.40
2018-01-05T09:44:16.851Z,17.60
2018-01-05T09:46:44.424Z,16.23
2018-01-05T09:49:12.781Z,15.10
2018-01-05T09:51:40.486Z,13.63
2018-01-05T09:54:08.182Z,11.17
2018-01-05T09:56:35.819Z,12.40
2018-01-05T09:59:03.444Z,6.80
2018-01-05T10:01:31.110Z,13.73
2018-01-05T10:03:58.720Z,17.53
2018-01-05T10:06:26.287Z,9.60
2018-01-05T10:08:53.855Z,9.13
2018-01-05T10:11:21.428Z,8.03
2018-01-05T10:13:49.054Z,12.00
2018-01-05T10:16:16.898Z,12.20
2018-01-05T10:18:44.504Z,7.10
2018-01-05T10:21:12.136Z,19.10
2018-01-05T10:23:39.764Z,12.37
2018-01-05T10:26:07.398Z,15.63
2018-01-05T10:28:35.003Z,9.90
2018-01-05T10:31:02.650Z,17.50
2018-01-05T10:33:30.282Z,14.00
2018-01-05T10:35:57.861Z,34.40
2018-01-05T10:38:25.508Z,9.30
2018-01-05T10:40:53.137Z,16.10
2018-01-05T10:43:20.760Z,19.47
2018-01-05T10:45:48.334Z,13.10
2018-01-05T10:48:15.917Z,11.23
2018-01-05T10:50:43.864Z,10.37
2018-01-05T10:53:12.372Z,12.07
2018-01-05T10:55:40.027Z,8.07
2018-01-05T10:58:07.594Z,7.93
2018-01-05T11:00:35.162Z,8.27
2018-01-05T11:03:02.811Z,10.10
2018-01-05T11:05:30.390Z,8.23
2018-01-05T11:07:58.070Z,10.20
2018-01-05T11:10:25.650Z,10.10
2018-01-05T11:12:53.246Z,12.27
2018-01-05T11:15:20.959Z,9.13
2018-01-05T11:17:48.534Z,10.40
2018-01-05T11:20:16.147Z,12.83
2018-01-05T11:22:43.722Z,8.90
2018-01-05T11:25:11.294Z,15.83
2018-01-05T11:27:38.914Z,11.93
2018-01-05T11:30:06.547Z,15.10
2018-01-05T11:32:34.259Z,12.43
2018-01-05T11:35:01.831Z,14.13
2018-01-05T11:37:29.450Z,12.00
2018-01-05T11:39:57.154Z,9.87
2018-01-05T11:42:24.924Z,10.77
2018-01-05T11:44:52.503Z,10.37
2018-01-05T11:47:20.130Z,9.20
2018-01-05T11:49:47.707Z,7.50
2018-01-05T11:52:15.286Z,11.37
2018-01-05T11:54:42.958Z,5.80
2018-01-05T11:57:10.780Z,10.07
2018-01-05T11:59:38.448Z,12.10
2018-01-05T12:02:06.031Z,8.37
2018-01-05T12:04:33.665Z,13.90
2018-01-05T12:07:01.276Z,13.50
2018-01-05T12:09:29.447Z,8.43
2018-01-05T12:11:57.174Z,5.53
2018-01-05T12:14:24.804Z,4.93
2018-01-05T12:16:52.386Z,10.63
2018-01-05T12:19:19.959Z,7.80
2018-01-05T12:21:47.526Z,5.30
2018-01-05T12:24:15.264Z,13.70
2018-01-05T12:26:42.827Z,5.67
2018-01-05T12:29:10.398Z,2.83
2018-01-05T12:31:37.971Z,8.10
2018-01-05T12:34:05.573Z,7.10
2018-01-05T12:36:33.146Z,10.30
2018-01-05T12:39:00.796Z,8.30
2018-01-05T12:41:28.403Z,8.43
2018-01-05T12:43:56.171Z,11.67
2018-01-05T12:46:23.798Z,5.20
2018-01-05T12:48:51.426Z,5.03
2018-01-05T12:51:19.026Z,7.53
2018-01-05T12:53:47.454Z,8.43
2018-01-05T12:56:15.134Z,3.60
2018-01-05T12:58:42.743Z,9.20
2018-01-05T13:01:10.311Z,12.30
2018-01-05T13:03:37.873Z,7.70
2018-01-05T13:06:05.484Z,9.00
2018-01-05T13:08:33.140Z,6.00
2018-01-05T13:11:00.714Z,8.93
2018-01-05T13:13:28.375Z,7.20
2018-01-05T13:15:55.956Z,5.13
2018-01-05T13:18:23.522Z,5.67
2018-01-05T13:20:51.096Z,5.63
2018-01-05T13:23:18.706Z,2.40
2018-01-05T13:25:46.366Z,3.73
2018-01-05T13:28:13.973Z,6.30
2018-01-05T13:30:41.548Z,6.20
2018-01-05T13:33:11.294Z,4.43
2018-01-05T13:35:38.898Z,2.53
2018-01-05T13:38:06.476Z,8.80
2018-01-05T13:40:34.074Z,3.67
2018-01-05T13:43:01.750Z,4.57
2018-01-05T13:45:29.318Z,6.47
2018-01-05T13:47:56.975Z,5.47
2018-01-05T13:50:24.547Z,5.53
2018-01-05T13:52:52.108Z,4.90
2018-01-05T13:55:19.679Z,3.00
2018-01-05T13:57:47.246Z,2.23
2018-01-05T14:00:14.810Z,3.27
2018-01-05T14:02:42.374Z,3.13
2018-01-05T14:05:10.265Z,2.30
2018-01-05T14:07:37.835Z,1.97
2018-01-05T14:10:05.399Z,1.67
2018-01-05T14:12:32.965Z,1.83
2018-01-05T14:15:00.530Z,3.70
2018-01-05T14:17:28.990Z,1.30
2018-01-05T14:19:57.464Z,2.13
2018-01-05T14:22:25.916Z,2.33
2018-01-05T14:24:53.478Z,2.90
2018-01-05T14:27:21.810Z,1.67
2018-01-05T14:29:50.182Z,1.50
2018-01-05T14:32:18.734Z,1.63
2018-01-05T14:34:47.116Z,1.77
2018-01-05T14:37:15.458Z,3.10
2018-01-05T14:39:43.056Z,1.60
2018-01-05T14:42:11.615Z,3.07
2018-01-05T14:44:39.330Z,1.40
2018-01-05T14:47:07.795Z,1.30
2018-01-05T14:49:36.272Z,1.03
2018-01-05T14:52:04.423Z,1.60
2018-01-05T14:54:31.987Z,2.40
2018-01-05T14:56:59.638Z,3.63
2018-01-05T14:59:27.205Z,1.77
2018-01-05T15:01:54.771Z,4.40
2018-01-05T15:04:22.343Z,5.70
2018-01-05T15:06:49.951Z,2.60
2018-01-05T15:09:17.515Z,1.47
2018-01-05T15:11:45.074Z,2.77
2018-01-05T15:14:12.640Z,4.77
2018-01-05T15:16:40.206Z,2.80
2018-01-05T15:19:07.767Z,3.17
2018-01-05T15:21:35.327Z,5.33
2018-01-05T15:24:02.891Z,3.33
2018-01-05T15:26:30.498Z,5.87
2018-01-05T15:28:58.066Z,1.33
2018-01-05T15:31:25.665Z,1.70
2018-01-05T15:33:53.235Z,1.80
2018-01-05T15:36:20.919Z,3.83
2018-01-05T15:38:48.583Z,4.60
2018-01-05T15:41:16.150Z,2.17
2018-01-05T15:43:44.508Z,4.83
2018-01-05T15:46:12.103Z,4.10
2018-01-05T15:48:39.664Z,2.03
2018-01-05T15:51:08.162Z,1.00
2018-01-05T15:53:35.719Z,2.90
2018-01-05T15:56:03.278Z,2.37
2018-01-05T15:58:30.847Z,3.30
2018-01-05T16:00:58.406Z,6.73
2018-01-05T16:03:25.968Z,5.50
2018-01-05T16:05:53.535Z,1.70
2018-01-05T16:08:21.151Z,4.13
2018-01-05T16:10:48.719Z,2.80
2018-01-05T16:13:17.063Z,5.40
2018-01-05T16:15:45.403Z,8.03
2018-01-05T16:18:13.922Z,2.70
2018-01-05T16:20:41.520Z,4.50
2018-01-05T16:23:09.683Z,3.20
2018-01-05T16:25:37.258Z,5.93
2018-01-05T16:28:04.911Z,1.90
2018-01-05T16:30:32.483Z,3.00
2018-01-05T16:33:00.136Z,3.70
2018-01-05T16:35:27.703Z,2.77
2018-01-05T16:37:55.275Z,4.90
2018-01-05T16:40:22.919Z,3.70
2018-01-05T16:42:50.484Z,2.77
2018-01-05T16:45:18.149Z,5.27
2018-01-05T16:47:45.810Z,5.77
2018-01-05T16:50:13.407Z,4.23
2018-01-05T16:52:40.967Z,4.63
2018-01-05T16:55:08.544Z,3.33
2018-01-05T16:57:36.115Z,4.67
2018-01-05T17:00:03.683Z,5.67
2018-01-05T17:02:31.241Z,4.47
2018-01-05T17:04:58.832Z,3.30
2018-01-05T17:07:26.435Z,5.90
2018-01-05T17:09:54.005Z,3.83
2018-01-05T17:12:21.573Z,8.37
2018-01-05T17:14:49.184Z,8.97
2018-01-05T17:17:16.848Z,5.40
2018-01-05T17:19:44.420Z,3.50
2018-01-05T17:22:14.484Z,5.70
2018-01-05T17:24:43.430Z,8.20
2018-01-05T17:27:11.741Z,6.17
2018-01-05T17:29:39.362Z,5.03
2018-01-05T17:32:06.930Z,3.40
2018-01-05T17:34:34.500Z,2.63
2018-01-05T17:37:02.072Z,4.27
2018-01-05T17:39:29.673Z,5.60
2018-01-05T17:41:58.014Z,2.80
2018-01-05T17:44:25.860Z,4.63
2018-01-05T17:46:53.544Z,3.53
2018-01-05T17:49:21.203Z,2.77
2018-01-05T17:51:48.814Z,3.13
2018-01-05T17:54:16.394Z,4.50
2018-01-05T17:56:43.963Z,5.20
2018-01-05T17:59:11.623Z,6.67
2018-01-05T18:01:39.213Z,2.93
2018-01-05T18:04:06.779Z,3.20
2018-01-05T18:06:34.347Z,3.70
2018-01-05T18:09:01.913Z,2.30
2018-01-05T18:11:29.478Z,1.93
2018-01-05T18:13:57.091Z,2.30
2018-01-05T18:16:24.752Z,3.27
2018-01-05T18:18:52.314Z,3.13
2018-01-05T18:21:19.972Z,2.40
2018-01-05T18:23:47.893Z,5.73
2018-01-05T18:26:16.636Z,12.03
2018-01-05T18:28:45.636Z,6.27
2018-01-05T18:31:14.759Z,5.40
2018-01-05T18:33:43.308Z,4.40
2018-01-05T18:36:11.767Z,3.20
2018-01-05T18:38:39.327Z,5.03
2018-01-05T18:41:07.832Z,4.17
2018-01-05T18:43:35.521Z,5.87
2018-01-05T18:46:03.126Z,3.73
2018-01-05T18:48:30.699Z,6.33
2018-01-05T18:50:59.003Z,7.13
2018-01-05T18:53:26.599Z,4.53
2018-01-05T18:55:54.339Z,8.70
2018-01-05T18:58:22.036Z,6.67
2018-01-05T19:00:49.606Z,4.27
2018-01-05T19:03:17.207Z,7.40
2018-01-05T19:05:44.819Z,7.63
2018-01-05T19:08:12.436Z,5.40
2018-01-05T19:10:40.124Z,4.43
2018-01-05T19:13:09.147Z,4.70
2018-01-05T19:15:36.747Z,5.63
2018-01-05T19:18:04.410Z,4.87
2018-01-05T19:20:31.987Z,4.80
2018-01-05T19:22:59.633Z,4.70
2018-01-05T19:25:27.206Z,9.33
2018-01-05T19:27:54.785Z,4.73
2018-01-05T19:30:22.369Z,6.50
2018-01-05T19:32:49.943Z,4.13
2018-01-05T19:35:17.552Z,5.50
2018-01-05T19:37:45.300Z,9.27
2018-01-05T19:40:13.720Z,11.20
2018-01-05T19:42:42.286Z,16.40
2018-01-05T19:45:09.859Z,11.83
2018-01-05T19:47:37.650Z,14.67
2018-01-05T19:50:05.262Z,7.37
2018-01-05T19:52:32.834Z,8.67
2018-01-05T19:55:00.415Z,7.47
2018-01-05T19:57:27.985Z,5.80
2018-01-05T19:59:55.596Z,9.70
2018-01-05T20:02:24.103Z,6.97
2018-01-05T20:04:52.463Z,7.30
2018-01-05T20:07:20.131Z,12.30
2018-01-05T20:09:47.798Z,6.43
2018-01-05T20:12:15.411Z,13.03
2018-01-05T20:14:43.026Z,6.37
2018-01-05T20:17:10.635Z,6.20
2018-01-05T20:19:39.140Z,7.27
2018-01-05T20:22:07.726Z,6.00
2018-01-05T20:24:36.191Z,10.23
2018-01-05T20:27:03.772Z,10.03
2018-01-05T20:29:31.351Z,8.40
2018-01-05T20:31:59.010Z,10.73
2018-01-05T20:34:26.670Z,8.67
2018-01-05T20:36:54.334Z,8.47
2018-01-05T20:39:21.995Z,9.40
2018-01-05T20:41:49.662Z,10.20
2018-01-05T20:44:17.238Z,8.27
2018-01-05T20:46:44.884Z,11.40
2018-01-05T20:49:13.875Z,6.60
2018-01-05T20:51:41.449Z,7.00
2018-01-05T20:54:09.107Z,7.90
2018-01-05T20:56:37.576Z,8.70
2018-01-05T20:59:05.259Z,10.40
2018-01-05T21:01:33.831Z,11.97
2018-01-05T21:04:01.402Z,7.00
2018-01-05T21:06:28.982Z,7.33
2018-01-05T21:08:56.854Z,8.80
2018-01-05T21:11:24.430Z,12.63
2018-01-05T21:13:52.282Z,10.07
2018-01-05T21:16:19.862Z,9.70
2018-01-05T21:18:47.506Z,11.53
2018-01-05T21:21:15.132Z,11.33
2018-01-05T21:23:42.803Z,15.27
2018-01-05T21:26:11.346Z,9.10
2018-01-05T21:28:38.910Z,16.63
2018-01-05T21:31:06.634Z,12.40
2018-01-05T21:33:34.234Z,9.07
2018-01-05T21:36:01.930Z,9.80
2018-01-05T21:38:29.564Z,10.77
2018-01-05T21:40:57.256Z,11.47
2018-01-05T21:43:24.924Z,11.60
2018-01-05T21:45:52.486Z,9.33
2018-01-05T21:48:21.110Z,9.80
2018-01-05T21:50:48.835Z,12.87
2018-01-05T21:53:16.458Z,12.03
2018-01-05T21:55:44.023Z,13.67
2018-01-05T21:58:11.603Z,10.37
2018-01-05T22:00:39.171Z,9.43
2018-01-05T22:03:07.241Z,9.50
2018-01-05T22:05:34.917Z,9.70
2018-01-05T22:08:02.530Z,13.20
2018-01-05T22:10:30.146Z,20.73
2018-01-05T22:12:57.815Z,17.63
2018-01-05T22:15:25.426Z,12.73
2018-01-05T22:17:53.086Z,13.40
2018-01-05T22:20:21.645Z,12.27
2018-01-05T22:22:49.267Z,16.70
2018-01-05T22:25:16.847Z,10.70
2018-01-05T22:27:44.496Z,11.53
2018-01-05T22:30:12.072Z,10.53
2018-01-05T22:32:39.720Z,9.23
2018-01-05T22:35:07.374Z,9.37
2018-01-05T22:37:34.939Z,15.50
2018-01-05T22:40:02.514Z,11.70
2018-01-05T22:42:30.091Z,13.97
2018-01-05T22:44:57.663Z,14.50
2018-01-05T22:47:26.103Z,14.43
2018-01-05T22:49:54.468Z,15.60
2018-01-05T22:52:22.045Z,16.47
2018-01-05T22:54:49.616Z,16.27
2018-01-05T22:57:18.103Z,17.40
2018-01-05T22:59:46.463Z,11.13
2018-01-05T23:02:14.126Z,12.43
2018-01-05T23:04:42.494Z,14.40
2018-01-05T23:07:10.974Z,12.37
2018-01-05T23:09:39.425Z,13.87
2018-01-05T23:12:06.991Z,13.07
2018-01-05T23:14:34.598Z,10.47
2018-01-05T23:17:02.171Z,17.53
2018-01-05T23:19:29.743Z,13.00
2018-01-05T23:21:57.359Z,16.63
2018-01-05T23:24:25.010Z,18.13
2018-01-05T23:26:52.590Z,10.10
2018-01-05T23:29:20.194Z,16.83
2018-01-05T23:31:47.766Z,16.20
2018-01-05T23:34:15.378Z,13.90
2018-01-05T23:36:43.006Z,11.97
2018-01-05T23:39:11.523Z,15.43
2018-01-05T23:41:39.095Z,11.47
2018-01-05T23:44:06.703Z,19.33
2018-01-05T23:46:34.306Z,13.03
2018-01-05T23:49:01.978Z,15.80
2018-01-05T23:51:30.575Z,12.00
2018-01-05T23:53:58.189Z,17.93
2018-01-05T23:56:25.766Z,14.30
2018-01-05T23:58:53.447Z,12.73
